sensor_id;sensor_type;location;lat;lon;timestamp;temperature;humidity
16785;DHT22;8509;52.178;5.404;2023-12-22T00:01:43;7.30;99.90
16785;DHT22;8509;52.178;5.404;2023-12-22T00:04:11;7.20;99.90
16785;DHT22;8509;52.178;5.404;2023-12-22T00:06:40;7.10;99.90
16785;DHT22;8509;52.178;5.404;2023-12-22T00:09:07;7.00;99.90
16785;DHT22;8509;52.178;5.404;2023-12-22T00:11:34;6.50;99.90
16785;DHT22;8509;52.178;5.404;2023-12-22T00:14:00;6.30;99.90
16785;DHT22;8509;52.178;5.404;2023-12-22T00:16:26;6.20;99.90
16785;DHT22;8509;52.178;5.404;2023-12-22T00:18:52;6.20;99.90
16785;DHT22;8509;52.178;5.404;2023-12-22T00:21:19;6.10;99.90
16785;DHT22;8509;52.178;5.404;2023-12-22T00:23:45;6.00;99.90
16785;DHT22;8509;52.178;5.404;2023-12-22T00:26:11;6.10;99.90
16785;DHT22;8509;52.178;5.404;2023-12-22T00:28:36;6.00;99.90
16785;DHT22;8509;52.178;5.404;2023-12-22T00:31:04;6.10;99.90
16785;DHT22;8509;52.178;5.404;2023-12-22T00:33:30;6.10;99.90
16785;DHT22;8509;52.178;5.404;2023-12-22T00:35:56;6.00;99.90
16785;DHT22;8509;52.178;5.404;2023-12-22T00:38:23;6.00;99.90
16785;DHT22;8509;52.178;5.404;2023-12-22T00:40:49;6.00;99.90
16785;DHT22;8509;52.178;5.404;2023-12-22T00:43:16;6.20;99.90
16785;DHT22;8509;52.178;5.404;2023-12-22T00:45:41;6.00;99.90
16785;DHT22;8509;52.178;5.404;2023-12-22T00:48:09;6.00;99.90
16785;DHT22;8509;52.178;5.404;2023-12-22T00:50:36;6.00;99.90
16785;DHT22;8509;52.178;5.404;2023-12-22T00:53:03;6.00;99.90
16785;DHT22;8509;52.178;5.404;2023-12-22T00:55:30;6.00;99.90
16785;DHT22;8509;52.178;5.404;2023-12-22T00:57:56;6.00;99.90
16785;DHT22;8509;52.178;5.404;2023-12-22T01:00:23;6.00;99.90
16785;DHT22;8509;52.178;5.404;2023-12-22T01:02:51;6.00;99.90
16785;DHT22;8509;52.178;5.404;2023-12-22T01:05:20;6.00;99.90
16785;DHT22;8509;52.178;5.404;2023-12-22T01:07:47;5.90;99.90
16785;DHT22;8509;52.178;5.404;2023-12-22T01:10:13;6.00;99.90
16785;DHT22;8509;52.178;5.404;2023-12-22T01:12:42;6.00;99.90
16785;DHT22;8509;52.178;5.404;2023-12-22T01:15:09;6.10;99.90
16785;DHT22;8509;52.178;5.404;2023-12-22T01:17:35;6.20;99.90
16785;DHT22;8509;52.178;5.404;2023-12-22T01:20:08;6.20;99.90
16785;DHT22;8509;52.178;5.404;2023-12-22T01:22:34;6.20;99.90
16785;DHT22;8509;52.178;5.404;2023-12-22T01:25:05;6.20;99.90
16785;DHT22;8509;52.178;5.404;2023-12-22T01:27:31;6.20;99.90
16785;DHT22;8509;52.178;5.404;2023-12-22T01:30:00;6.20;99.90
16785;DHT22;8509;52.178;5.404;2023-12-22T01:32:26;6.20;99.90
16785;DHT22;8509;52.178;5.404;2023-12-22T01:34:56;6.40;99.90
16785;DHT22;8509;52.178;5.404;2023-12-22T01:37:22;6.20;99.90
16785;DHT22;8509;52.178;5.404;2023-12-22T01:39:51;6.00;99.90
16785;DHT22;8509;52.178;5.404;2023-12-22T01:42:25;6.10;99.90
16785;DHT22;8509;52.178;5.404;2023-12-22T01:44:55;6.00;99.90
16785;DHT22;8509;52.178;5.404;2023-12-22T01:47:21;6.00;99.90
16785;DHT22;8509;52.178;5.404;2023-12-22T01:49:48;6.00;99.90
16785;DHT22;8509;52.178;5.404;2023-12-22T01:52:14;6.00;99.90
16785;DHT22;8509;52.178;5.404;2023-12-22T01:54:41;6.10;99.90
16785;DHT22;8509;52.178;5.404;2023-12-22T01:57:07;6.00;99.90
16785;DHT22;8509;52.178;5.404;2023-12-22T01:59:35;5.90;99.90
16785;DHT22;8509;52.178;5.404;2023-12-22T02:02:02;5.90;99.90
16785;DHT22;8509;52.178;5.404;2023-12-22T02:04:30;6.00;99.90
16785;DHT22;8509;52.178;5.404;2023-12-22T02:06:58;6.00;99.90
16785;DHT22;8509;52.178;5.404;2023-12-22T02:09:26;6.00;99.90
16785;DHT22;8509;52.178;5.404;2023-12-22T02:11:53;6.10;99.90
16785;DHT22;8509;52.178;5.404;2023-12-22T02:14:20;6.10;99.90
16785;DHT22;8509;52.178;5.404;2023-12-22T02:16:59;6.20;99.90
16785;DHT22;8509;52.178;5.404;2023-12-22T02:19:45;6.20;99.90
16785;DHT22;8509;52.178;5.404;2023-12-22T02:22:18;6.30;99.90
16785;DHT22;8509;52.178;5.404;2023-12-22T02:24:46;6.30;99.90
16785;DHT22;8509;52.178;5.404;2023-12-22T02:30:13;6.60;99.90
16785;DHT22;8509;52.178;5.404;2023-12-22T02:32:43;6.50;99.90
16785;DHT22;8509;52.178;5.404;2023-12-22T02:35:14;6.50;99.90
16785;DHT22;8509;52.178;5.404;2023-12-22T02:37:41;6.50;99.90
16785;DHT22;8509;52.178;5.404;2023-12-22T02:40:09;6.50;99.90
16785;DHT22;8509;52.178;5.404;2023-12-22T02:42:37;6.40;99.90
16785;DHT22;8509;52.178;5.404;2023-12-22T02:45:04;6.60;99.90
16785;DHT22;8509;52.178;5.404;2023-12-22T02:47:31;6.40;99.90
16785;DHT22;8509;52.178;5.404;2023-12-22T02:50:00;6.50;99.90
16785;DHT22;8509;52.178;5.404;2023-12-22T02:52:26;6.50;99.90
16785;DHT22;8509;52.178;5.404;2023-12-22T02:54:53;6.80;99.90
16785;DHT22;8509;52.178;5.404;2023-12-22T02:57:18;7.00;99.90
16785;DHT22;8509;52.178;5.404;2023-12-22T02:59:44;7.00;99.90
16785;DHT22;8509;52.178;5.404;2023-12-22T03:02:12;7.20;99.90
16785;DHT22;8509;52.178;5.404;2023-12-22T03:04:38;7.20;99.90
16785;DHT22;8509;52.178;5.404;2023-12-22T03:07:04;7.30;99.90
16785;DHT22;8509;52.178;5.404;2023-12-22T03:09:37;7.30;99.90
16785;DHT22;8509;52.178;5.404;2023-12-22T03:12:05;7.30;99.90
16785;DHT22;8509;52.178;5.404;2023-12-22T03:14:31;7.40;99.90
16785;DHT22;8509;52.178;5.404;2023-12-22T03:17:03;7.20;99.90
16785;DHT22;8509;52.178;5.404;2023-12-22T03:19:29;7.10;99.90
16785;DHT22;8509;52.178;5.404;2023-12-22T03:21:54;6.90;99.90
16785;DHT22;8509;52.178;5.404;2023-12-22T03:24:22;6.80;99.90
16785;DHT22;8509;52.178;5.404;2023-12-22T03:26:49;6.70;99.90
16785;DHT22;8509;52.178;5.404;2023-12-22T03:29:15;6.80;99.90
16785;DHT22;8509;52.178;5.404;2023-12-22T03:31:41;6.80;99.90
16785;DHT22;8509;52.178;5.404;2023-12-22T03:34:07;6.90;99.90
16785;DHT22;8509;52.178;5.404;2023-12-22T03:36:32;6.90;99.90
16785;DHT22;8509;52.178;5.404;2023-12-22T03:38:58;6.80;99.90
16785;DHT22;8509;52.178;5.404;2023-12-22T03:41:25;6.60;99.90
16785;DHT22;8509;52.178;5.404;2023-12-22T03:43:52;6.50;99.90
16785;DHT22;8509;52.178;5.404;2023-12-22T03:46:18;6.20;99.90
16785;DHT22;8509;52.178;5.404;2023-12-22T03:48:44;6.10;99.90
16785;DHT22;8509;52.178;5.404;2023-12-22T03:51:12;6.00;99.90
16785;DHT22;8509;52.178;5.404;2023-12-22T03:53:40;5.90;99.90
16785;DHT22;8509;52.178;5.404;2023-12-22T03:56:08;5.90;99.90
16785;DHT22;8509;52.178;5.404;2023-12-22T03:58:40;5.90;99.90
16785;DHT22;8509;52.178;5.404;2023-12-22T04:01:06;5.90;99.90
16785;DHT22;8509;52.178;5.404;2023-12-22T04:03:35;5.90;99.90
16785;DHT22;8509;52.178;5.404;2023-12-22T04:06:03;6.00;99.90
16785;DHT22;8509;52.178;5.404;2023-12-22T04:08:35;6.00;99.90
16785;DHT22;8509;52.178;5.404;2023-12-22T04:11:01;6.00;99.90
16785;DHT22;8509;52.178;5.404;2023-12-22T04:13:26;6.00;99.90
16785;DHT22;8509;52.178;5.404;2023-12-22T04:15:56;6.00;99.90
16785;DHT22;8509;52.178;5.404;2023-12-22T04:18:22;6.10;99.90
16785;DHT22;8509;52.178;5.404;2023-12-22T04:20:48;6.40;99.90
16785;DHT22;8509;52.178;5.404;2023-12-22T04:23:17;6.10;99.90
16785;DHT22;8509;52.178;5.404;2023-12-22T04:25:42;6.10;99.90
16785;DHT22;8509;52.178;5.404;2023-12-22T04:28:08;6.10;99.90
16785;DHT22;8509;52.178;5.404;2023-12-22T04:30:34;6.10;99.90
16785;DHT22;8509;52.178;5.404;2023-12-22T04:33:01;6.00;99.90
16785;DHT22;8509;52.178;5.404;2023-12-22T04:35:26;6.10;99.90
16785;DHT22;8509;52.178;5.404;2023-12-22T04:37:52;6.20;99.90
16785;DHT22;8509;52.178;5.404;2023-12-22T04:40:18;6.20;99.90
16785;DHT22;8509;52.178;5.404;2023-12-22T04:42:45;6.20;99.90
16785;DHT22;8509;52.178;5.404;2023-12-22T04:45:10;6.20;99.90
16785;DHT22;8509;52.178;5.404;2023-12-22T04:47:36;6.10;99.90
16785;DHT22;8509;52.178;5.404;2023-12-22T04:50:02;6.20;99.90
16785;DHT22;8509;52.178;5.404;2023-12-22T04:52:27;6.10;99.90
16785;DHT22;8509;52.178;5.404;2023-12-22T04:54:54;6.10;99.90
16785;DHT22;8509;52.178;5.404;2023-12-22T04:57:20;6.10;99.90
16785;DHT22;8509;52.178;5.404;2023-12-22T04:59:48;6.10;99.90
16785;DHT22;8509;52.178;5.404;2023-12-22T05:02:14;6.10;99.90
16785;DHT22;8509;52.178;5.404;2023-12-22T05:04:41;6.10;99.90
16785;DHT22;8509;52.178;5.404;2023-12-22T05:07:07;6.10;99.90
16785;DHT22;8509;52.178;5.404;2023-12-22T05:09:36;6.20;99.90
16785;DHT22;8509;52.178;5.404;2023-12-22T05:12:03;6.20;99.90
16785;DHT22;8509;52.178;5.404;2023-12-22T05:14:30;6.20;99.90
16785;DHT22;8509;52.178;5.404;2023-12-22T05:16:55;6.20;99.90
16785;DHT22;8509;52.178;5.404;2023-12-22T05:19:22;6.20;99.90
16785;DHT22;8509;52.178;5.404;2023-12-22T05:21:48;6.30;99.90
16785;DHT22;8509;52.178;5.404;2023-12-22T05:24:15;6.30;99.90
16785;DHT22;8509;52.178;5.404;2023-12-22T05:26:40;6.30;99.90
16785;DHT22;8509;52.178;5.404;2023-12-22T05:29:06;6.40;99.90
16785;DHT22;8509;52.178;5.404;2023-12-22T05:31:33;6.60;99.90
16785;DHT22;8509;52.178;5.404;2023-12-22T05:34:00;6.50;99.90
16785;DHT22;8509;52.178;5.404;2023-12-22T05:36:25;6.50;99.90
16785;DHT22;8509;52.178;5.404;2023-12-22T05:38:51;6.70;99.90
16785;DHT22;8509;52.178;5.404;2023-12-22T05:41:17;6.80;99.90
16785;DHT22;8509;52.178;5.404;2023-12-22T05:43:42;6.90;99.90
16785;DHT22;8509;52.178;5.404;2023-12-22T05:46:08;7.00;99.90
16785;DHT22;8509;52.178;5.404;2023-12-22T05:48:35;7.10;99.90
16785;DHT22;8509;52.178;5.404;2023-12-22T05:51:01;7.10;99.90
16785;DHT22;8509;52.178;5.404;2023-12-22T05:53:28;7.30;99.90
16785;DHT22;8509;52.178;5.404;2023-12-22T05:55:55;7.40;99.90
16785;DHT22;8509;52.178;5.404;2023-12-22T05:58:21;7.30;99.90
16785;DHT22;8509;52.178;5.404;2023-12-22T06:00:47;7.50;99.90
16785;DHT22;8509;52.178;5.404;2023-12-22T06:03:13;7.40;99.90
16785;DHT22;8509;52.178;5.404;2023-12-22T06:05:40;7.50;99.90
16785;DHT22;8509;52.178;5.404;2023-12-22T06:08:06;7.60;99.90
16785;DHT22;8509;52.178;5.404;2023-12-22T06:10:31;7.50;99.90
16785;DHT22;8509;52.178;5.404;2023-12-22T06:12:57;7.50;99.90
16785;DHT22;8509;52.178;5.404;2023-12-22T06:15:23;7.60;99.90
16785;DHT22;8509;52.178;5.404;2023-12-22T06:17:49;7.70;99.90
16785;DHT22;8509;52.178;5.404;2023-12-22T06:20:15;7.70;99.90
16785;DHT22;8509;52.178;5.404;2023-12-22T06:22:42;7.70;99.90
16785;DHT22;8509;52.178;5.404;2023-12-22T06:25:08;7.70;99.90
16785;DHT22;8509;52.178;5.404;2023-12-22T06:27:35;7.90;99.90
16785;DHT22;8509;52.178;5.404;2023-12-22T06:30:05;7.90;99.90
16785;DHT22;8509;52.178;5.404;2023-12-22T06:32:31;7.90;99.90
16785;DHT22;8509;52.178;5.404;2023-12-22T06:34:58;7.90;99.90
16785;DHT22;8509;52.178;5.404;2023-12-22T06:37:25;7.90;99.90
16785;DHT22;8509;52.178;5.404;2023-12-22T06:39:52;8.00;99.90
16785;DHT22;8509;52.178;5.404;2023-12-22T06:42:18;8.00;99.90
16785;DHT22;8509;52.178;5.404;2023-12-22T06:44:43;8.00;99.90
16785;DHT22;8509;52.178;5.404;2023-12-22T06:47:09;7.90;99.90
16785;DHT22;8509;52.178;5.404;2023-12-22T06:49:35;8.00;99.90
16785;DHT22;8509;52.178;5.404;2023-12-22T06:52:01;8.00;99.90
16785;DHT22;8509;52.178;5.404;2023-12-22T06:54:29;8.10;99.90
16785;DHT22;8509;52.178;5.404;2023-12-22T06:56:56;8.10;99.90
16785;DHT22;8509;52.178;5.404;2023-12-22T06:59:21;8.20;99.90
16785;DHT22;8509;52.178;5.404;2023-12-22T07:01:48;8.10;99.90
16785;DHT22;8509;52.178;5.404;2023-12-22T07:04:13;8.20;99.90
16785;DHT22;8509;52.178;5.404;2023-12-22T07:06:39;8.10;99.90
16785;DHT22;8509;52.178;5.404;2023-12-22T07:11:47;8.20;99.90
16785;DHT22;8509;52.178;5.404;2023-12-22T07:14:13;8.10;99.90
16785;DHT22;8509;52.178;5.404;2023-12-22T07:16:39;8.20;99.90
16785;DHT22;8509;52.178;5.404;2023-12-22T07:19:05;8.30;99.90
16785;DHT22;8509;52.178;5.404;2023-12-22T07:21:31;8.30;99.90
16785;DHT22;8509;52.178;5.404;2023-12-22T07:23:58;8.10;99.90
16785;DHT22;8509;52.178;5.404;2023-12-22T07:26:24;8.20;99.90
16785;DHT22;8509;52.178;5.404;2023-12-22T07:28:54;8.30;99.90
16785;DHT22;8509;52.178;5.404;2023-12-22T07:31:20;8.30;99.90
16785;DHT22;8509;52.178;5.404;2023-12-22T07:33:46;8.30;99.90
16785;DHT22;8509;52.178;5.404;2023-12-22T07:36:12;8.30;99.90
16785;DHT22;8509;52.178;5.404;2023-12-22T07:38:38;8.40;99.90
16785;DHT22;8509;52.178;5.404;2023-12-22T07:41:06;8.30;99.90
16785;DHT22;8509;52.178;5.404;2023-12-22T07:43:32;8.40;99.90
16785;DHT22;8509;52.178;5.404;2023-12-22T07:45:58;8.40;99.90
16785;DHT22;8509;52.178;5.404;2023-12-22T07:48:24;8.40;99.90
16785;DHT22;8509;52.178;5.404;2023-12-22T07:50:49;8.40;99.90
16785;DHT22;8509;52.178;5.404;2023-12-22T07:53:15;8.30;99.90
16785;DHT22;8509;52.178;5.404;2023-12-22T07:55:42;8.30;99.90
16785;DHT22;8509;52.178;5.404;2023-12-22T07:58:08;8.10;99.90
16785;DHT22;8509;52.178;5.404;2023-12-22T08:00:34;8.00;99.90
16785;DHT22;8509;52.178;5.404;2023-12-22T08:02:59;7.90;99.90
16785;DHT22;8509;52.178;5.404;2023-12-22T08:05:26;8.00;99.90
16785;DHT22;8509;52.178;5.404;2023-12-22T08:07:51;7.90;99.90
16785;DHT22;8509;52.178;5.404;2023-12-22T08:10:17;7.80;99.90
16785;DHT22;8509;52.178;5.404;2023-12-22T08:12:43;7.90;99.90
16785;DHT22;8509;52.178;5.404;2023-12-22T08:15:09;7.90;99.90
16785;DHT22;8509;52.178;5.404;2023-12-22T08:17:46;7.90;99.90
16785;DHT22;8509;52.178;5.404;2023-12-22T08:20:16;8.00;99.90
16785;DHT22;8509;52.178;5.404;2023-12-22T08:22:42;8.00;99.90
16785;DHT22;8509;52.178;5.404;2023-12-22T08:25:09;8.00;99.90
16785;DHT22;8509;52.178;5.404;2023-12-22T08:27:34;8.10;99.90
16785;DHT22;8509;52.178;5.404;2023-12-22T08:30:00;8.20;99.90
16785;DHT22;8509;52.178;5.404;2023-12-22T08:32:26;8.20;99.90
16785;DHT22;8509;52.178;5.404;2023-12-22T08:34:51;8.20;99.90
16785;DHT22;8509;52.178;5.404;2023-12-22T08:37:17;8.40;99.90
16785;DHT22;8509;52.178;5.404;2023-12-22T08:39:43;8.20;99.90
16785;DHT22;8509;52.178;5.404;2023-12-22T08:42:08;8.30;99.90
16785;DHT22;8509;52.178;5.404;2023-12-22T08:44:34;8.30;99.90
16785;DHT22;8509;52.178;5.404;2023-12-22T08:46:59;8.30;99.90
16785;DHT22;8509;52.178;5.404;2023-12-22T08:49:25;8.50;99.90
16785;DHT22;8509;52.178;5.404;2023-12-22T08:51:51;8.30;99.90
16785;DHT22;8509;52.178;5.404;2023-12-22T08:54:16;8.40;99.90
16785;DHT22;8509;52.178;5.404;2023-12-22T08:56:43;8.50;99.90
16785;DHT22;8509;52.178;5.404;2023-12-22T08:59:08;8.50;99.90
16785;DHT22;8509;52.178;5.404;2023-12-22T09:01:34;8.60;99.90
16785;DHT22;8509;52.178;5.404;2023-12-22T09:04:00;8.80;99.90
16785;DHT22;8509;52.178;5.404;2023-12-22T09:06:27;8.60;99.90
16785;DHT22;8509;52.178;5.404;2023-12-22T09:08:53;8.70;99.90
16785;DHT22;8509;52.178;5.404;2023-12-22T09:11:20;8.70;99.90
16785;DHT22;8509;52.178;5.404;2023-12-22T09:13:46;8.80;99.90
16785;DHT22;8509;52.178;5.404;2023-12-22T09:16:12;8.80;99.90
16785;DHT22;8509;52.178;5.404;2023-12-22T09:18:40;8.80;99.90
16785;DHT22;8509;52.178;5.404;2023-12-22T09:21:07;8.80;99.90
16785;DHT22;8509;52.178;5.404;2023-12-22T09:23:33;8.80;99.90
16785;DHT22;8509;52.178;5.404;2023-12-22T09:25:58;8.80;99.90
16785;DHT22;8509;52.178;5.404;2023-12-22T09:28:24;8.80;99.90
16785;DHT22;8509;52.178;5.404;2023-12-22T09:30:50;8.80;99.90
16785;DHT22;8509;52.178;5.404;2023-12-22T09:33:16;8.60;99.90
16785;DHT22;8509;52.178;5.404;2023-12-22T09:35:42;8.60;99.90
16785;DHT22;8509;52.178;5.404;2023-12-22T09:38:08;8.50;99.90
16785;DHT22;8509;52.178;5.404;2023-12-22T09:40:40;8.50;99.90
16785;DHT22;8509;52.178;5.404;2023-12-22T09:43:08;8.50;99.90
16785;DHT22;8509;52.178;5.404;2023-12-22T09:45:35;8.50;99.90
16785;DHT22;8509;52.178;5.404;2023-12-22T09:48:02;8.50;99.90
16785;DHT22;8509;52.178;5.404;2023-12-22T09:50:30;8.50;99.90
16785;DHT22;8509;52.178;5.404;2023-12-22T09:52:56;8.50;99.90
16785;DHT22;8509;52.178;5.404;2023-12-22T09:55:23;8.50;99.90
16785;DHT22;8509;52.178;5.404;2023-12-22T09:57:49;8.50;99.90
16785;DHT22;8509;52.178;5.404;2023-12-22T10:00:15;8.60;99.90
16785;DHT22;8509;52.178;5.404;2023-12-22T10:02:43;8.70;99.90
16785;DHT22;8509;52.178;5.404;2023-12-22T10:05:13;8.80;99.90
16785;DHT22;8509;52.178;5.404;2023-12-22T10:07:44;8.90;99.90
16785;DHT22;8509;52.178;5.404;2023-12-22T10:10:12;9.10;99.90
16785;DHT22;8509;52.178;5.404;2023-12-22T10:12:38;9.10;99.90
16785;DHT22;8509;52.178;5.404;2023-12-22T10:15:09;9.20;99.90
16785;DHT22;8509;52.178;5.404;2023-12-22T10:17:37;9.30;99.90
16785;DHT22;8509;52.178;5.404;2023-12-22T10:20:04;9.40;99.90
16785;DHT22;8509;52.178;5.404;2023-12-22T10:22:29;9.50;99.90
16785;DHT22;8509;52.178;5.404;2023-12-22T10:24:55;9.50;99.90
16785;DHT22;8509;52.178;5.404;2023-12-22T10:27:21;9.60;99.90
16785;DHT22;8509;52.178;5.404;2023-12-22T10:29:50;9.70;99.90
16785;DHT22;8509;52.178;5.404;2023-12-22T10:32:16;9.80;99.90
16785;DHT22;8509;52.178;5.404;2023-12-22T10:34:42;9.80;99.90
16785;DHT22;8509;52.178;5.404;2023-12-22T10:37:09;9.70;99.90
16785;DHT22;8509;52.178;5.404;2023-12-22T10:39:36;9.80;99.90
16785;DHT22;8509;52.178;5.404;2023-12-22T10:42:03;9.70;99.90
16785;DHT22;8509;52.178;5.404;2023-12-22T10:44:29;9.70;99.90
16785;DHT22;8509;52.178;5.404;2023-12-22T10:46:56;9.70;99.90
16785;DHT22;8509;52.178;5.404;2023-12-22T10:49:23;9.70;99.90
16785;DHT22;8509;52.178;5.404;2023-12-22T10:51:49;9.60;99.90
16785;DHT22;8509;52.178;5.404;2023-12-22T10:54:16;9.70;99.90
16785;DHT22;8509;52.178;5.404;2023-12-22T10:56:42;9.80;99.90
16785;DHT22;8509;52.178;5.404;2023-12-22T10:59:08;9.70;99.90
16785;DHT22;8509;52.178;5.404;2023-12-22T11:01:36;9.70;99.90
16785;DHT22;8509;52.178;5.404;2023-12-22T11:04:06;9.80;99.90
16785;DHT22;8509;52.178;5.404;2023-12-22T11:06:36;9.80;99.90
16785;DHT22;8509;52.178;5.404;2023-12-22T11:09:09;9.80;99.90
16785;DHT22;8509;52.178;5.404;2023-12-22T11:11:37;9.80;99.90
16785;DHT22;8509;52.178;5.404;2023-12-22T11:14:04;9.80;99.90
16785;DHT22;8509;52.178;5.404;2023-12-22T11:16:32;9.80;99.90
16785;DHT22;8509;52.178;5.404;2023-12-22T11:19:02;9.80;99.90
16785;DHT22;8509;52.178;5.404;2023-12-22T11:21:28;9.90;99.90
16785;DHT22;8509;52.178;5.404;2023-12-22T11:23:55;10.10;99.90
16785;DHT22;8509;52.178;5.404;2023-12-22T11:26:23;10.00;99.90
16785;DHT22;8509;52.178;5.404;2023-12-22T11:28:50;10.10;99.90
16785;DHT22;8509;52.178;5.404;2023-12-22T11:31:20;10.10;99.90
16785;DHT22;8509;52.178;5.404;2023-12-22T11:33:47;10.10;99.90
16785;DHT22;8509;52.178;5.404;2023-12-22T11:36:14;10.10;99.90
16785;DHT22;8509;52.178;5.404;2023-12-22T11:38:44;10.00;99.90
16785;DHT22;8509;52.178;5.404;2023-12-22T11:41:25;9.90;99.90
16785;DHT22;8509;52.178;5.404;2023-12-22T11:43:51;10.10;99.90
16785;DHT22;8509;52.178;5.404;2023-12-22T11:46:18;10.00;99.90
16785;DHT22;8509;52.178;5.404;2023-12-22T11:48:48;9.90;99.90
16785;DHT22;8509;52.178;5.404;2023-12-22T11:51:15;10.00;99.90
16785;DHT22;8509;52.178;5.404;2023-12-22T11:53:41;9.90;99.90
16785;DHT22;8509;52.178;5.404;2023-12-22T11:56:08;9.80;99.90
16785;DHT22;8509;52.178;5.404;2023-12-22T11:58:36;9.80;99.90
16785;DHT22;8509;52.178;5.404;2023-12-22T12:01:03;9.80;99.90
16785;DHT22;8509;52.178;5.404;2023-12-22T12:03:30;9.90;99.90
16785;DHT22;8509;52.178;5.404;2023-12-22T12:08:38;9.90;99.90
16785;DHT22;8509;52.178;5.404;2023-12-22T12:11:04;9.80;99.90
16785;DHT22;8509;52.178;5.404;2023-12-22T12:13:32;9.90;99.90
16785;DHT22;8509;52.178;5.404;2023-12-22T12:15:59;10.00;99.90
16785;DHT22;8509;52.178;5.404;2023-12-22T12:18:32;9.90;99.90
16785;DHT22;8509;52.178;5.404;2023-12-22T12:21:00;10.10;99.90
16785;DHT22;8509;52.178;5.404;2023-12-22T12:23:27;10.20;99.90
16785;DHT22;8509;52.178;5.404;2023-12-22T12:25:54;10.20;99.90
16785;DHT22;8509;52.178;5.404;2023-12-22T12:28:30;10.30;99.90
16785;DHT22;8509;52.178;5.404;2023-12-22T12:31:02;10.40;99.90
16785;DHT22;8509;52.178;5.404;2023-12-22T12:33:29;10.40;99.90
16785;DHT22;8509;52.178;5.404;2023-12-22T12:35:57;10.60;99.90
16785;DHT22;8509;52.178;5.404;2023-12-22T12:41:10;10.50;99.90
16785;DHT22;8509;52.178;5.404;2023-12-22T12:43:42;10.60;99.90
16785;DHT22;8509;52.178;5.404;2023-12-22T12:46:08;10.60;99.90
16785;DHT22;8509;52.178;5.404;2023-12-22T12:48:34;10.50;99.90
16785;DHT22;8509;52.178;5.404;2023-12-22T12:51:07;10.60;99.90
16785;DHT22;8509;52.178;5.404;2023-12-22T12:53:33;10.60;99.90
16785;DHT22;8509;52.178;5.404;2023-12-22T12:56:00;10.60;99.90
16785;DHT22;8509;52.178;5.404;2023-12-22T12:58:32;10.70;99.90
16785;DHT22;8509;52.178;5.404;2023-12-22T13:01:08;10.70;99.90
16785;DHT22;8509;52.178;5.404;2023-12-22T13:03:54;10.70;99.90
16785;DHT22;8509;52.178;5.404;2023-12-22T13:06:20;10.70;99.90
16785;DHT22;8509;52.178;5.404;2023-12-22T13:08:52;10.70;99.90
16785;DHT22;8509;52.178;5.404;2023-12-22T13:11:36;10.90;99.90
16785;DHT22;8509;52.178;5.404;2023-12-22T13:14:03;10.70;99.90
16785;DHT22;8509;52.178;5.404;2023-12-22T13:16:28;10.60;99.90
16785;DHT22;8509;52.178;5.404;2023-12-22T13:18:59;10.60;99.90
16785;DHT22;8509;52.178;5.404;2023-12-22T13:21:26;10.60;99.90
16785;DHT22;8509;52.178;5.404;2023-12-22T13:24:11;10.60;99.90
16785;DHT22;8509;52.178;5.404;2023-12-22T13:26:39;10.60;99.90
16785;DHT22;8509;52.178;5.404;2023-12-22T13:29:05;10.60;99.90
16785;DHT22;8509;52.178;5.404;2023-12-22T13:31:32;10.60;99.90
16785;DHT22;8509;52.178;5.404;2023-12-22T13:33:58;10.70;99.90
16785;DHT22;8509;52.178;5.404;2023-12-22T13:36:25;10.70;99.90
16785;DHT22;8509;52.178;5.404;2023-12-22T13:38:50;10.70;99.90
16785;DHT22;8509;52.178;5.404;2023-12-22T13:41:17;10.70;99.90
16785;DHT22;8509;52.178;5.404;2023-12-22T13:43:42;10.70;99.90
16785;DHT22;8509;52.178;5.404;2023-12-22T13:46:13;10.70;99.90
16785;DHT22;8509;52.178;5.404;2023-12-22T13:48:42;10.60;99.90
16785;DHT22;8509;52.178;5.404;2023-12-22T13:51:08;10.60;99.90
16785;DHT22;8509;52.178;5.404;2023-12-22T13:53:35;10.60;99.90
16785;DHT22;8509;52.178;5.404;2023-12-22T13:56:11;10.70;99.90
16785;DHT22;8509;52.178;5.404;2023-12-22T13:58:46;10.70;99.90
16785;DHT22;8509;52.178;5.404;2023-12-22T14:01:13;10.60;99.90
16785;DHT22;8509;52.178;5.404;2023-12-22T14:03:41;10.50;99.90
16785;DHT22;8509;52.178;5.404;2023-12-22T14:06:07;10.50;99.90
16785;DHT22;8509;52.178;5.404;2023-12-22T14:08:35;10.30;99.90
16785;DHT22;8509;52.178;5.404;2023-12-22T14:11:01;10.20;99.90
16785;DHT22;8509;52.178;5.404;2023-12-22T14:13:26;10.20;99.90
16785;DHT22;8509;52.178;5.404;2023-12-22T14:15:53;10.10;99.90
16785;DHT22;8509;52.178;5.404;2023-12-22T14:18:18;10.20;99.90
16785;DHT22;8509;52.178;5.404;2023-12-22T14:20:44;10.10;99.90
16785;DHT22;8509;52.178;5.404;2023-12-22T14:23:11;10.10;99.90
16785;DHT22;8509;52.178;5.404;2023-12-22T14:25:42;10.10;99.90
16785;DHT22;8509;52.178;5.404;2023-12-22T14:28:07;10.20;99.90
16785;DHT22;8509;52.178;5.404;2023-12-22T14:30:33;10.20;99.90
16785;DHT22;8509;52.178;5.404;2023-12-22T14:32:59;10.20;99.90
16785;DHT22;8509;52.178;5.404;2023-12-22T14:35:25;10.20;99.90
16785;DHT22;8509;52.178;5.404;2023-12-22T14:37:50;10.20;99.90
16785;DHT22;8509;52.178;5.404;2023-12-22T14:40:16;10.20;99.90
16785;DHT22;8509;52.178;5.404;2023-12-22T14:42:42;10.20;99.90
16785;DHT22;8509;52.178;5.404;2023-12-22T14:45:08;10.20;99.90
16785;DHT22;8509;52.178;5.404;2023-12-22T14:47:33;10.20;99.90
16785;DHT22;8509;52.178;5.404;2023-12-22T14:50:00;10.20;99.90
16785;DHT22;8509;52.178;5.404;2023-12-22T14:52:32;10.30;99.90
16785;DHT22;8509;52.178;5.404;2023-12-22T14:54:59;10.20;99.90
16785;DHT22;8509;52.178;5.404;2023-12-22T14:57:25;10.00;99.90
16785;DHT22;8509;52.178;5.404;2023-12-22T14:59:51;10.10;99.90
16785;DHT22;8509;52.178;5.404;2023-12-22T15:02:17;10.20;99.90
16785;DHT22;8509;52.178;5.404;2023-12-22T15:04:44;10.10;99.90
16785;DHT22;8509;52.178;5.404;2023-12-22T15:07:09;10.20;99.90
16785;DHT22;8509;52.178;5.404;2023-12-22T15:09:39;10.10;99.90
16785;DHT22;8509;52.178;5.404;2023-12-22T15:12:05;10.20;99.90
16785;DHT22;8509;52.178;5.404;2023-12-22T15:14:30;10.20;99.90
16785;DHT22;8509;52.178;5.404;2023-12-22T15:16:56;10.20;99.90
16785;DHT22;8509;52.178;5.404;2023-12-22T15:19:22;10.20;99.90
16785;DHT22;8509;52.178;5.404;2023-12-22T15:21:47;10.20;99.90
16785;DHT22;8509;52.178;5.404;2023-12-22T15:24:13;10.20;99.90
16785;DHT22;8509;52.178;5.404;2023-12-22T15:26:39;10.30;99.90
16785;DHT22;8509;52.178;5.404;2023-12-22T15:29:04;10.30;99.90
16785;DHT22;8509;52.178;5.404;2023-12-22T15:31:30;10.30;99.90
16785;DHT22;8509;52.178;5.404;2023-12-22T15:33:57;10.30;99.90
16785;DHT22;8509;52.178;5.404;2023-12-22T15:36:23;10.30;99.90
16785;DHT22;8509;52.178;5.404;2023-12-22T15:38:49;10.30;99.90
16785;DHT22;8509;52.178;5.404;2023-12-22T15:41:15;10.40;99.90
16785;DHT22;8509;52.178;5.404;2023-12-22T15:43:41;10.40;99.90
16785;DHT22;8509;52.178;5.404;2023-12-22T15:46:07;10.40;99.90
16785;DHT22;8509;52.178;5.404;2023-12-22T15:48:34;10.40;99.90
16785;DHT22;8509;52.178;5.404;2023-12-22T15:51:10;10.30;99.90
16785;DHT22;8509;52.178;5.404;2023-12-22T15:53:37;10.30;99.90
16785;DHT22;8509;52.178;5.404;2023-12-22T15:56:07;10.40;99.90
16785;DHT22;8509;52.178;5.404;2023-12-22T15:58:36;10.40;99.90
16785;DHT22;8509;52.178;5.404;2023-12-22T16:01:02;10.40;99.90
16785;DHT22;8509;52.178;5.404;2023-12-22T16:03:28;10.40;99.90
16785;DHT22;8509;52.178;5.404;2023-12-22T16:05:54;10.40;99.90
16785;DHT22;8509;52.178;5.404;2023-12-22T16:08:20;10.40;99.90